createdAt,value
2018-12-08T16:15:33.803Z,4.86
2018-12-08T16:16:37.840Z,4.87
2018-12-08T16:17:41.783Z,4.85
2018-12-08T16:18:45.724Z,4.84
2018-12-08T16:19:49.647Z,4.83
2018-12-08T16:20:53.656Z,4.80
2018-12-08T16:21:57.899Z,4.82
2018-12-08T16:23:01.921Z,4.82
2018-12-08T16:24:05.943Z,4.82
2018-12-08T16:25:10.007Z,4.82
2018-12-08T16:26:14.023Z,4.85
2018-12-08T16:27:18.115Z,4.83
2018-12-08T16:28:22.192Z,4.84
2018-12-08T16:29:26.160Z,4.86
2018-12-08T16:30:30.129Z,4.80
2018-12-08T16:31:34.156Z,4.83
2018-12-08T16:32:38.289Z,4.85
2018-12-08T16:33:42.244Z,4.85
2018-12-08T16:34:46.219Z,4.84
2018-12-08T16:35:50.285Z,4.87
2018-12-08T16:36:54.251Z,4.89
2018-12-08T16:37:58.299Z,4.91
2018-12-08T16:39:02.234Z,4.95
2018-12-08T16:40:06.844Z,4.95
2018-12-08T16:41:10.835Z,4.97
2018-12-08T16:42:14.802Z,4.97
2018-12-08T16:43:18.828Z,4.99
2018-12-08T16:44:22.848Z,5.01
2018-12-08T16:45:26.820Z,5.03
2018-12-08T16:46:30.846Z,5.05
2018-12-08T16:47:34.871Z,5.05
2018-12-08T16:48:38.939Z,5.05
2018-12-08T16:49:42.944Z,5.05
2018-12-08T16:50:46.944Z,5.03
2018-12-08T16:51:50.910Z,5.09
2018-12-08T16:52:54.856Z,5.09
2018-12-08T16:53:59.741Z,5.11
2018-12-08T16:55:03.741Z,5.02
2018-12-08T16:56:07.697Z,5.06
2018-12-08T16:57:11.741Z,5.09
2018-12-08T16:58:15.841Z,5.08
2018-12-08T16:59:19.801Z,5.11
2018-12-08T17:00:23.772Z,5.14
2018-12-08T17:01:27.782Z,5.16
2018-12-08T17:02:31.968Z,5.17
2018-12-08T17:03:35.984Z,5.18
2018-12-08T17:04:39.943Z,5.19
2018-12-08T17:05:43.931Z,5.20
2018-12-08T17:06:47.936Z,5.20
2018-12-08T17:07:51.953Z,5.18
2018-12-08T17:08:55.929Z,5.17
2018-12-08T17:10:00.001Z,5.19
2018-12-08T17:11:03.976Z,5.20
2018-12-08T17:12:07.981Z,5.22
2018-12-08T17:13:11.971Z,5.25
2018-12-08T17:14:16.172Z,5.23
2018-12-08T17:15:20.230Z,5.24
2018-12-08T17:16:24.198Z,5.26
2018-12-08T17:17:28.215Z,5.28
2018-12-08T17:18:32.294Z,5.29
2018-12-08T17:19:36.355Z,5.28
2018-12-08T17:20:40.322Z,5.29
2018-12-08T17:21:44.289Z,5.27
2018-12-08T17:22:48.262Z,5.29
2018-12-08T17:23:52.208Z,5.25
2018-12-08T17:24:56.195Z,5.28
2018-12-08T17:26:00.159Z,5.26
2018-12-08T17:27:04.204Z,5.21
2018-12-08T17:28:08.212Z,5.27
2018-12-08T17:29:12.280Z,5.27
2018-12-08T17:30:16.353Z,5.25
2018-12-08T17:31:20.290Z,5.26
2018-12-08T17:32:24.322Z,5.24
2018-12-08T17:33:28.281Z,5.27
2018-12-08T17:34:32.274Z,5.28
2018-12-08T17:35:36.291Z,5.25
2018-12-08T17:36:40.294Z,5.30
2018-12-08T17:37:44.306Z,5.29
2018-12-08T17:38:48.291Z,5.29
2018-12-08T17:39:52.304Z,5.29
2018-12-08T17:40:56.348Z,5.31
2018-12-08T17:42:00.366Z,5.30
2018-12-08T17:43:04.377Z,5.33
2018-12-08T17:44:08.393Z,5.33
2018-12-08T17:45:12.498Z,5.34
2018-12-08T17:46:16.573Z,5.36
2018-12-08T17:47:20.543Z,5.36
2018-12-08T17:48:24.501Z,5.38
2018-12-08T17:49:28.547Z,5.39
2018-12-08T17:50:32.644Z,5.37
2018-12-08T17:51:36.660Z,5.39
2018-12-08T17:52:40.609Z,5.41
2018-12-08T17:53:44.629Z,5.39
2018-12-08T17:54:50.342Z,5.44
2018-12-08T17:55:54.307Z,5.43
2018-12-08T17:56:58.391Z,5.43
2018-12-08T17:58:02.529Z,5.39
2018-12-08T17:59:06.494Z,5.36
2018-12-08T18:00:10.649Z,5.39
2018-12-08T18:01:14.649Z,5.39
2018-12-08T18:02:18.704Z,5.34
2018-12-08T18:03:22.683Z,5.36
2018-12-08T18:04:26.693Z,5.33
2018-12-08T18:05:30.654Z,5.31
2018-12-08T18:06:34.804Z,5.37
2018-12-08T18:07:38.971Z,5.30
2018-12-08T18:08:42.947Z,5.39
2018-12-08T18:09:47.028Z,5.33
2018-12-08T18:10:51.012Z,5.39
2018-12-08T18:11:55.175Z,5.39
2018-12-08T18:12:59.297Z,5.37
2018-12-08T18:14:03.579Z,5.36
2018-12-08T18:15:07.681Z,5.37
2018-12-08T18:16:11.782Z,5.33
2018-12-08T18:17:15.841Z,5.35
2018-12-08T18:18:20.074Z,5.37
2018-12-08T18:19:24.127Z,5.36
2018-12-08T18:20:28.088Z,5.38
2018-12-08T18:21:32.176Z,5.38
2018-12-08T18:22:36.167Z,5.35
2018-12-08T18:23:40.280Z,5.37
2018-12-08T18:24:44.268Z,5.38
2018-12-08T18:25:48.233Z,5.39
2018-12-08T18:26:52.234Z,5.36
2018-12-08T18:27:56.159Z,5.34
2018-12-08T18:29:00.133Z,5.33
2018-12-08T18:30:04.280Z,5.32
2018-12-08T18:31:08.240Z,5.31
2018-12-08T18:32:12.284Z,5.28
2018-12-08T18:33:16.248Z,5.29
2018-12-08T18:34:20.300Z,5.29
2018-12-08T18:35:24.268Z,5.29
2018-12-08T18:36:28.255Z,5.29
2018-12-08T18:37:32.243Z,5.25
2018-12-08T18:38:36.303Z,5.24
2018-12-08T18:39:40.383Z,5.22
2018-12-08T18:40:44.396Z,5.23
2018-12-08T18:41:48.365Z,5.21
2018-12-08T18:42:52.331Z,5.18
2018-12-08T18:43:56.384Z,5.17
2018-12-08T18:45:00.408Z,5.16
2018-12-08T18:46:04.550Z,5.15
2018-12-08T18:47:14.828Z,5.16
2018-12-08T18:48:18.768Z,5.15
2018-12-08T18:49:22.806Z,5.13
2018-12-08T18:50:26.904Z,5.13
2018-12-08T18:51:30.922Z,5.10
2018-12-08T18:52:35.107Z,5.13
2018-12-08T18:53:39.391Z,5.12
2018-12-08T18:54:43.407Z,5.20
2018-12-08T18:55:47.525Z,5.18
2018-12-08T18:56:51.504Z,5.16
2018-12-08T18:57:55.544Z,5.19
2018-12-08T18:58:59.573Z,5.19
2018-12-08T19:00:03.739Z,5.20
2018-12-08T19:01:07.846Z,5.24
2018-12-08T19:02:12.053Z,5.21
2018-12-08T19:03:16.119Z,5.22
2018-12-08T19:04:20.165Z,5.21
2018-12-08T19:05:24.174Z,5.21
2018-12-08T19:06:28.260Z,5.23
2018-12-08T19:07:32.299Z,5.23
2018-12-08T19:08:36.429Z,5.21
2018-12-08T19:09:40.428Z,5.24
2018-12-08T19:10:44.484Z,5.25
2018-12-08T19:11:48.570Z,5.25
2018-12-08T19:12:52.656Z,5.25
2018-12-08T19:13:56.672Z,5.27
2018-12-08T19:15:00.676Z,5.25
2018-12-08T19:16:04.702Z,5.25
2018-12-08T19:17:08.734Z,5.28
2018-12-08T19:18:12.837Z,5.29
2018-12-08T19:19:16.888Z,5.26
2018-12-08T19:20:20.979Z,5.25
2018-12-08T19:21:31.495Z,5.28
2018-12-08T19:22:35.581Z,5.26
2018-12-08T19:23:43.611Z,5.28
2018-12-08T19:24:43.721Z,5.29
2018-12-08T19:25:47.720Z,5.27
2018-12-08T19:26:51.753Z,5.27
2018-12-08T19:27:56.219Z,5.27
2018-12-08T19:29:00.215Z,5.29
2018-12-08T19:30:04.339Z,5.30
2018-12-08T19:31:08.351Z,5.31
2018-12-08T19:32:12.437Z,5.31
2018-12-08T19:33:16.743Z,5.31
2018-12-08T19:34:20.990Z,5.33
2018-12-08T19:35:25.098Z,5.26
2018-12-08T19:36:29.397Z,5.26
2018-12-08T19:37:33.581Z,5.27
2018-12-08T19:38:37.697Z,5.28
2018-12-08T19:39:41.696Z,5.29
2018-12-08T19:40:45.790Z,5.33
2018-12-08T19:41:49.905Z,5.30
2018-12-08T19:42:54.037Z,5.26
2018-12-08T19:43:58.150Z,5.28
2018-12-08T19:45:02.104Z,5.29
2018-12-08T19:46:06.390Z,5.25
2018-12-08T19:47:10.470Z,5.27
2018-12-08T19:48:14.519Z,5.28
2018-12-08T19:49:18.646Z,5.29
2018-12-08T19:50:22.663Z,5.30
2018-12-08T19:51:26.767Z,5.33
2018-12-08T19:52:30.798Z,5.34
2018-12-08T19:53:34.930Z,5.36
2018-12-08T19:54:39.097Z,5.33
2018-12-08T19:55:43.341Z,5.34
2018-12-08T19:56:47.384Z,5.34
2018-12-08T19:57:51.440Z,5.27
2018-12-08T19:58:55.518Z,5.27
2018-12-08T19:59:59.627Z,5.28
2018-12-08T20:01:03.712Z,5.27
2018-12-08T20:02:07.743Z,5.30
2018-12-08T20:03:11.822Z,5.27
2018-12-08T20:04:15.991Z,5.25
2018-12-08T20:05:20.178Z,5.27
2018-12-08T20:06:24.253Z,5.27
2018-12-08T20:07:28.573Z,5.29
2018-12-08T20:08:32.643Z,5.29
2018-12-08T20:09:36.784Z,5.29
2018-12-08T20:10:40.816Z,5.28
2018-12-08T20:11:44.955Z,5.26
2018-12-08T20:12:49.054Z,5.30
2018-12-08T20:13:53.202Z,5.26
2018-12-08T20:14:57.269Z,5.29
2018-12-08T20:16:01.425Z,5.28
2018-12-08T20:17:05.488Z,5.28
2018-12-08T20:18:09.514Z,5.28
2018-12-08T20:19:13.593Z,5.28
2018-12-08T20:20:17.675Z,5.27
2018-12-08T20:21:21.788Z,5.28
2018-12-08T20:22:25.999Z,5.28
2018-12-08T20:23:30.178Z,5.27
2018-12-08T20:24:34.362Z,5.29
2018-12-08T20:25:38.707Z,5.28
2018-12-08T20:26:43.297Z,5.24
2018-12-08T20:27:47.930Z,5.24
2018-12-08T20:28:52.156Z,5.25
2018-12-08T20:29:56.398Z,5.27
2018-12-08T20:31:00.657Z,5.28
2018-12-08T20:32:04.891Z,5.28
2018-12-08T20:33:09.185Z,5.29
2018-12-08T20:34:13.755Z,5.29
2018-12-08T20:35:18.115Z,5.30
2018-12-08T20:36:22.573Z,5.30
2018-12-08T20:37:27.052Z,5.29
2018-12-08T20:38:31.431Z,5.27
2018-12-08T20:39:35.881Z,5.28
2018-12-08T20:40:40.263Z,5.30
2018-12-08T20:41:45.014Z,5.28
2018-12-08T20:42:49.724Z,5.28
2018-12-08T20:43:54.328Z,5.29
2018-12-08T20:44:58.650Z,5.31
2018-12-08T20:46:02.883Z,5.32
2018-12-08T20:47:07.233Z,5.30
2018-12-08T20:48:11.651Z,5.28
2018-12-08T20:49:15.869Z,5.33
2018-12-08T20:50:19.882Z,5.31
2018-12-08T20:51:30.492Z,5.33
2018-12-08T20:52:34.534Z,5.31
2018-12-08T20:53:38.660Z,5.26
2018-12-08T20:54:42.703Z,5.18
2018-12-08T20:55:46.881Z,5.18
2018-12-08T20:56:50.972Z,5.22
2018-12-08T20:57:54.952Z,5.23
2018-12-08T20:58:58.989Z,5.26
2018-12-08T21:00:03.046Z,5.26
2018-12-08T21:01:07.187Z,5.26
2018-12-08T21:02:11.279Z,5.27
2018-12-08T21:03:15.363Z,5.28
2018-12-08T21:04:19.423Z,5.30
2018-12-08T21:05:23.507Z,5.32
2018-12-08T21:06:27.617Z,5.31
2018-12-08T21:07:31.751Z,5.33
2018-12-08T21:08:36.130Z,5.31
2018-12-08T21:09:40.214Z,5.31
2018-12-08T21:10:44.270Z,5.33
2018-12-08T21:11:48.444Z,5.29
2018-12-08T21:12:52.539Z,5.33
2018-12-08T21:13:56.642Z,5.33
2018-12-08T21:15:00.736Z,5.35
2018-12-08T21:16:04.840Z,5.33
2018-12-08T21:17:08.898Z,5.31
2018-12-08T21:18:12.970Z,5.34
2018-12-08T21:19:17.153Z,5.35
2018-12-08T21:20:21.210Z,5.36
2018-12-08T21:21:25.231Z,5.37
2018-12-08T21:22:29.233Z,5.39
2018-12-08T21:23:33.189Z,5.41
2018-12-08T21:24:37.284Z,5.42
2018-12-08T21:25:41.295Z,5.42
2018-12-08T21:26:45.291Z,5.40
2018-12-08T21:27:49.312Z,5.38
2018-12-08T21:28:53.267Z,5.37
2018-12-08T21:29:57.347Z,5.37
2018-12-08T21:31:01.359Z,5.37
2018-12-08T21:32:06.315Z,5.37
2018-12-08T21:33:09.514Z,5.37
2018-12-08T21:34:13.542Z,5.39
2018-12-08T21:35:17.760Z,5.37
2018-12-08T21:36:21.821Z,5.39
2018-12-08T21:37:25.948Z,5.37
2018-12-08T21:38:29.952Z,5.36
2018-12-08T21:39:34.054Z,5.37
2018-12-08T21:40:38.158Z,5.40
2018-12-08T21:41:42.185Z,5.36
2018-12-08T21:42:46.236Z,5.37
2018-12-08T21:43:50.269Z,5.37
2018-12-08T21:44:54.294Z,5.41
2018-12-08T21:46:01.246Z,5.36
2018-12-08T21:47:05.263Z,5.42
2018-12-08T21:48:09.298Z,5.43
2018-12-08T21:49:13.446Z,5.44
2018-12-08T21:50:17.549Z,5.43
2018-12-08T21:51:21.683Z,5.44
2018-12-08T21:52:25.768Z,5.44
2018-12-08T21:53:29.838Z,5.45
2018-12-08T21:54:33.891Z,5.47
2018-12-08T21:55:37.931Z,5.48
2018-12-08T21:56:42.019Z,5.48
2018-12-08T21:57:46.038Z,5.45
2018-12-08T21:58:50.248Z,5.44
2018-12-08T21:59:54.348Z,5.43
2018-12-08T22:00:58.395Z,5.44
2018-12-08T22:02:02.410Z,5.43
2018-12-08T22:03:06.400Z,5.42
2018-12-08T22:04:10.476Z,5.43
2018-12-08T22:05:14.596Z,5.43
2018-12-08T22:06:18.753Z,5.43
2018-12-08T22:07:22.861Z,5.41
2018-12-08T22:08:27.157Z,5.39
2018-12-08T22:09:31.303Z,5.41
2018-12-08T22:10:35.393Z,5.40
2018-12-08T22:11:39.545Z,5.35
2018-12-08T22:12:43.682Z,5.34
2018-12-08T22:13:47.874Z,5.35
2018-12-08T22:15:05.976Z,5.34
2018-12-08T22:16:10.084Z,5.34
2018-12-08T22:17:14.268Z,5.33
2018-12-08T22:18:18.505Z,5.29
2018-12-08T22:19:22.494Z,5.26
2018-12-08T22:20:26.616Z,5.27
2018-12-08T22:21:30.841Z,5.29
2018-12-08T22:22:34.982Z,5.28
2018-12-08T22:23:39.158Z,5.28
2018-12-08T22:24:43.221Z,5.29
2018-12-08T22:25:47.363Z,5.30
2018-12-08T22:26:51.440Z,5.29
2018-12-08T22:28:02.284Z,5.26
2018-12-08T22:29:06.434Z,5.27
2018-12-08T22:30:10.737Z,5.29
2018-12-08T22:31:14.800Z,5.30
2018-12-08T22:32:18.883Z,5.31
2018-12-08T22:33:23.003Z,5.33
2018-12-08T22:34:27.309Z,5.34
2018-12-08T22:35:31.437Z,5.33
2018-12-08T22:36:35.496Z,5.35
2018-12-08T22:37:40.115Z,5.34
2018-12-08T22:38:44.260Z,5.33
2018-12-08T22:39:48.450Z,5.35
2018-12-08T22:40:52.669Z,5.34
2018-12-08T22:41:56.907Z,5.37
2018-12-08T22:43:00.988Z,5.36
2018-12-08T22:44:05.109Z,5.39
2018-12-08T22:45:09.199Z,5.37
2018-12-08T22:46:13.298Z,5.37
2018-12-08T22:47:17.415Z,5.37
2018-12-08T22:48:21.490Z,5.37
2018-12-08T22:49:25.551Z,5.37
2018-12-08T22:50:29.729Z,5.39
2018-12-08T22:51:33.954Z,5.37
2018-12-08T22:52:37.986Z,5.39
2018-12-08T22:53:42.000Z,5.37
2018-12-08T22:54:46.175Z,5.34
2018-12-08T22:55:55.047Z,5.36
2018-12-08T22:56:59.456Z,5.36
2018-12-08T22:58:03.873Z,5.35
2018-12-08T22:59:08.255Z,5.35
2018-12-08T23:00:43.183Z,5.36
2018-12-08T23:01:47.187Z,5.34
2018-12-08T23:02:51.307Z,5.33
2018-12-08T23:03:55.611Z,5.30
2018-12-08T23:04:59.656Z,5.33
2018-12-08T23:06:03.797Z,5.32
2018-12-08T23:07:07.966Z,5.34
2018-12-08T23:08:12.007Z,5.35
2018-12-08T23:09:16.108Z,5.35
2018-12-08T23:10:20.137Z,5.33
2018-12-08T23:11:24.184Z,5.30
2018-12-08T23:12:28.323Z,5.28
2018-12-08T23:13:32.728Z,5.28
2018-12-08T23:14:36.804Z,5.25
2018-12-08T23:15:40.913Z,5.23
2018-12-08T23:16:44.973Z,5.24
2018-12-08T23:17:48.983Z,5.24
2018-12-08T23:18:53.533Z,5.22
2018-12-08T23:19:57.578Z,5.21
2018-12-08T23:21:01.634Z,5.22
2018-12-08T23:22:05.739Z,5.21
2018-12-08T23:23:09.982Z,5.15
2018-12-08T23:24:14.155Z,5.17
2018-12-08T23:25:18.158Z,5.18
2018-12-08T23:26:22.130Z,5.18
2018-12-08T23:27:26.271Z,5.17
2018-12-08T23:28:30.499Z,5.15
2018-12-08T23:29:34.646Z,5.14
2018-12-08T23:30:38.676Z,5.14
2018-12-08T23:31:42.870Z,5.14
2018-12-08T23:32:46.943Z,5.15
2018-12-08T23:33:51.031Z,5.16
2018-12-08T23:34:55.077Z,5.16
2018-12-08T23:35:59.094Z,5.15
2018-12-08T23:37:03.474Z,5.17
2018-12-08T23:38:07.653Z,5.18
2018-12-08T23:39:11.695Z,5.20
2018-12-08T23:40:15.761Z,5.20
2018-12-08T23:41:19.824Z,5.22
2018-12-08T23:42:23.830Z,5.20
2018-12-08T23:43:27.895Z,5.19
2018-12-08T23:44:31.878Z,5.18
2018-12-08T23:45:35.933Z,5.19
2018-12-08T23:46:39.919Z,5.21
2018-12-08T23:47:44.015Z,5.20
2018-12-08T23:48:48.045Z,5.19
2018-12-08T23:49:52.181Z,5.18
2018-12-08T23:50:56.188Z,5.19
2018-12-08T23:52:00.235Z,5.19
2018-12-08T23:53:04.271Z,5.21
2018-12-08T23:54:08.234Z,5.22
2018-12-08T23:55:12.340Z,5.23
2018-12-08T23:56:16.343Z,5.24
2018-12-08T23:57:20.394Z,5.25
2018-12-08T23:58:24.411Z,5.28
2018-12-08T23:59:28.364Z,5.29
